Time;durP1;ratioP1;P1;durP2;ratioP2;P2;SDS_P1;SDS_P2;PMS_P1;PMS_P2;Temp;Humidity;BMP_temperature;BMP_pressure;BME280_temperature;BME280_humidity;BME280_pressure;Samples;Min_cycle;Max_cycle;Signal;HPM_P1;HPM_P2
2022/12/13 00:02:00;;;;;;;15.27;8.02;;;;;;;;;;5034300;28;20063;-94
2022/12/13 00:04:27;;;;;;;18.85;8.75;;;;;;;;;;5034402;28;20054;-94
2022/12/13 00:06:55;;;;;;;26.20;8.88;;;;;;;;;;5034441;28;20081;-95
2022/12/13 00:09:23;;;;;;;22.58;8.40;;;;;;;;;;5035018;28;20143;-95
2022/12/13 00:11:53;;;;;;;14.93;7.55;;;;;;;;;;5034281;28;20057;-94
2022/12/13 00:14:20;;;;;;;14.05;7.20;;;;;;;;;;5034043;28;20053;-94
2022/12/13 00:16:48;;;;;;;17.20;8.95;;;;;;;;;;5034157;28;20065;-95
2022/12/13 00:19:16;;;;;;;13.65;8.07;;;;;;;;;;5033843;28;20057;-95
2022/12/13 00:21:44;;;;;;;15.30;7.72;;;;;;;;;;5033970;28;20053;-94
2022/12/13 00:24:11;;;;;;;16.30;7.70;;;;;;;;;;5033728;28;20140;-95
2022/12/13 00:26:38;;;;;;;13.70;7.78;;;;;;;;;;5033926;28;20063;-94
2022/12/13 00:29:06;;;;;;;17.25;8.32;;;;;;;;;;5033572;28;20076;-94
2022/12/13 00:31:34;;;;;;;13.77;8.13;;;;;;;;;;5033583;28;20049;-95
2022/12/13 00:34:21;;;;;;;15.93;8.45;;;;;;;;;;5033656;28;20057;-95
2022/12/13 00:36:48;;;;;;;17.02;8.15;;;;;;;;;;5033548;28;20057;-94
2022/12/13 00:39:17;;;;;;;19.13;7.90;;;;;;;;;;5033552;28;20056;-96
2022/12/13 00:41:45;;;;;;;13.85;7.97;;;;;;;;;;5033432;28;20061;-95
2022/12/13 00:44:13;;;;;;;18.45;8.18;;;;;;;;;;5033519;28;20413;-95
2022/12/13 00:46:40;;;;;;;16.17;8.23;;;;;;;;;;5033181;28;20413;-95
2022/12/13 00:49:09;;;;;;;19.50;8.38;;;;;;;;;;5033868;28;20049;-95
2022/12/13 00:51:37;;;;;;;11.70;6.72;;;;;;;;;;5033081;28;20084;-96
2022/12/13 00:54:04;;;;;;;17.42;7.65;;;;;;;;;;5033376;28;20379;-95
2022/12/13 00:56:32;;;;;;;13.57;7.60;;;;;;;;;;5033213;28;20045;-94
2022/12/13 00:59:00;;;;;;;16.58;7.60;;;;;;;;;;5033234;28;20052;-95
2022/12/13 01:01:28;;;;;;;20.65;8.25;;;;;;;;;;5033410;28;20049;-95
2022/12/13 01:03:57;;;;;;;14.93;7.93;;;;;;;;;;5033006;28;20052;-94
2022/12/13 01:06:29;;;;;;;16.42;7.95;;;;;;;;;;5032137;28;20045;-95
2022/12/13 01:08:56;;;;;;;20.33;9.10;;;;;;;;;;5033209;28;20050;-95
2022/12/13 01:11:23;;;;;;;15.60;7.93;;;;;;;;;;5033129;28;20489;-95
2022/12/13 01:13:50;;;;;;;21.02;9.48;;;;;;;;;;5033408;28;20041;-96
2022/12/13 01:16:18;;;;;;;18.95;8.30;;;;;;;;;;5032942;28;20065;-95
2022/12/13 01:18:45;;;;;;;17.95;7.97;;;;;;;;;;5032437;28;20644;-95
2022/12/13 01:21:15;;;;;;;21.52;8.60;;;;;;;;;;5032766;28;20060;-95
2022/12/13 01:23:43;;;;;;;16.10;7.60;;;;;;;;;;5032586;28;20571;-95
2022/12/13 01:26:14;;;;;;;15.98;7.53;;;;;;;;;;5033286;28;20045;-96
2022/12/13 01:28:41;;;;;;;14.75;7.35;;;;;;;;;;5043410;28;20049;-93
2022/12/13 01:31:10;;;;;;;15.80;7.80;;;;;;;;;;5048165;28;20053;-94
2022/12/13 01:33:38;;;;;;;13.93;8.20;;;;;;;;;;5038439;28;20050;-95
2022/12/13 01:36:06;;;;;;;22.02;8.15;;;;;;;;;;5033486;28;20057;-95
2022/12/13 01:38:34;;;;;;;20.48;8.88;;;;;;;;;;5032423;28;20490;-95
2022/12/13 01:41:04;;;;;;;17.73;8.77;;;;;;;;;;5032965;28;20140;-95
2022/12/13 01:43:43;;;;;;;17.98;8.50;;;;;;;;;;5032893;28;20490;-95
2022/12/13 01:46:12;;;;;;;17.40;7.82;;;;;;;;;;5032865;28;20042;-95
2022/12/13 01:48:42;;;;;;;17.92;8.35;;;;;;;;;;5032217;28;20053;-95
2022/12/13 01:51:11;;;;;;;17.35;7.15;;;;;;;;;;5032593;28;20061;-94
2022/12/13 01:53:40;;;;;;;13.30;6.95;;;;;;;;;;5032586;28;20056;-95
2022/12/13 01:56:10;;;;;;;14.93;7.70;;;;;;;;;;5032702;28;20137;-95
2022/12/13 01:58:38;;;;;;;19.95;7.95;;;;;;;;;;5032251;28;20068;-95
2022/12/13 02:01:05;;;;;;;15.25;7.95;;;;;;;;;;5032462;28;20076;-96
2022/12/13 02:03:33;;;;;;;21.92;8.60;;;;;;;;;;5032794;28;20053;-95
2022/12/13 02:06:03;;;;;;;13.65;7.57;;;;;;;;;;5032266;28;20050;-95
2022/12/13 02:08:31;;;;;;;16.50;7.00;;;;;;;;;;5032317;28;20061;-95
2022/12/13 02:11:02;;;;;;;19.53;8.07;;;;;;;;;;5032764;28;20046;-95
2022/12/13 02:13:30;;;;;;;17.90;8.93;;;;;;;;;;5032226;28;20068;-95
2022/12/13 02:16:11;;;;;;;14.35;7.70;;;;;;;;;;5032361;28;20053;-95
2022/12/13 02:18:38;;;;;;;16.08;8.05;;;;;;;;;;5034350;28;20042;-94
2022/12/13 02:21:08;;;;;;;16.70;8.45;;;;;;;;;;5036114;28;20075;-94
2022/12/13 02:24:01;;;;;;;17.70;8.07;;;;;;;;;;5035665;28;20065;-94
2022/12/13 02:26:41;;;;;;;20.70;8.85;;;;;;;;;;5035961;28;20100;-95
2022/12/13 02:29:08;;;;;;;12.27;7.03;;;;;;;;;;5037094;28;20053;-95
2022/12/13 02:31:48;;;;;;;13.40;7.70;;;;;;;;;;5036677;28;20057;-95
2022/12/13 02:34:20;;;;;;;14.10;8.15;;;;;;;;;;5036761;28;20057;-94
2022/12/13 02:36:48;;;;;;;16.95;8.45;;;;;;;;;;5036425;28;20082;-95
2022/12/13 02:39:20;;;;;;;18.25;8.60;;;;;;;;;;5036210;28;20041;-95
2022/12/13 02:42:18;;;;;;;13.55;8.27;;;;;;;;;;5036094;28;20076;-95
2022/12/13 02:45:01;;;;;;;11.68;6.75;;;;;;;;;;5035881;28;20115;-94
2022/12/13 02:47:30;;;;;;;12.60;6.68;;;;;;;;;;5035565;28;20068;-95
2022/12/13 02:49:59;;;;;;;13.73;6.85;;;;;;;;;;5035655;28;20536;-95
2022/12/13 02:52:28;;;;;;;15.02;7.32;;;;;;;;;;5035706;28;20068;-94
2022/12/13 02:54:56;;;;;;;13.20;7.75;;;;;;;;;;5035665;28;20045;-94
2022/12/13 02:57:40;;;;;;;17.35;7.32;;;;;;;;;;5035617;28;20383;-94
2022/12/13 03:00:09;;;;;;;16.55;7.63;;;;;;;;;;5035479;28;20046;-95
2022/12/13 03:02:57;;;;;;;13.82;7.30;;;;;;;;;;5035335;28;20065;-94
2022/12/13 03:08:24;;;;;;;18.92;7.95;;;;;;;;;;5036123;28;20140;-94
2022/12/13 03:11:01;;;;;;;15.23;7.15;;;;;;;;;;5035086;28;20042;-94
2022/12/13 03:13:36;;;;;;;13.48;7.20;;;;;;;;;;5035129;28;20060;-94
2022/12/13 03:16:09;;;;;;;11.50;6.65;;;;;;;;;;5035118;28;20045;-95
2022/12/13 03:18:37;;;;;;;16.60;7.70;;;;;;;;;;5035160;28;20061;-94
2022/12/13 03:21:07;;;;;;;14.15;6.68;;;;;;;;;;5035170;28;20050;-95
2022/12/13 03:23:35;;;;;;;15.57;6.53;;;;;;;;;;5034755;28;20054;-93
2022/12/13 03:26:10;;;;;;;14.40;7.15;;;;;;;;;;5034771;28;20049;-94
2022/12/13 03:28:38;;;;;;;15.27;7.13;;;;;;;;;;5034690;28;20060;-95
2022/12/13 03:31:05;;;;;;;13.73;7.28;;;;;;;;;;5034019;28;20051;-94
2022/12/13 03:33:33;;;;;;;17.48;7.13;;;;;;;;;;5034800;28;20061;-95
2022/12/13 03:36:00;;;;;;;17.17;7.22;;;;;;;;;;5034893;28;20049;-94
2022/12/13 03:38:28;;;;;;;19.25;7.43;;;;;;;;;;5034803;28;20058;-94
2022/12/13 03:40:58;;;;;;;11.80;6.03;;;;;;;;;;5032111;28;20079;-94
2022/12/13 03:43:26;;;;;;;19.15;6.90;;;;;;;;;;5034767;28;20045;-94
2022/12/13 03:45:53;;;;;;;14.48;7.60;;;;;;;;;;5042034;28;20055;-93
2022/12/13 03:48:21;;;;;;;15.00;6.95;;;;;;;;;;5044928;28;20052;-93
2022/12/13 03:50:50;;;;;;;18.95;7.53;;;;;;;;;;5034439;28;20053;-93
2022/12/13 03:53:17;;;;;;;16.73;8.57;;;;;;;;;;5034664;28;20145;-94
2022/12/13 03:55:59;;;;;;;25.05;7.63;;;;;;;;;;5034386;28;20042;-94
2022/12/13 03:58:27;;;;;;;18.42;8.30;;;;;;;;;;5034123;28;20386;-93
2022/12/13 04:01:14;;;;;;;14.05;7.28;;;;;;;;;;5034348;28;20053;-94
2022/12/13 04:03:42;;;;;;;15.07;7.68;;;;;;;;;;5034007;28;20052;-94
2022/12/13 04:06:09;;;;;;;17.63;7.15;;;;;;;;;;5034081;28;20045;-94
2022/12/13 04:08:37;;;;;;;19.42;7.30;;;;;;;;;;5033803;28;20049;-94
2022/12/13 04:13:51;;;;;;;13.02;7.53;;;;;;;;;;5034758;28;20050;-94
2022/12/13 04:16:18;;;;;;;13.40;7.07;;;;;;;;;;5033953;28;20055;-94
2022/12/13 04:18:45;;;;;;;14.38;6.90;;;;;;;;;;5034029;28;20048;-94
2022/12/13 04:21:13;;;;;;;13.07;6.57;;;;;;;;;;5034011;28;20061;-93
2022/12/13 04:23:40;;;;;;;16.27;6.88;;;;;;;;;;5033515;28;20054;-93
2022/12/13 04:26:07;;;;;;;13.27;6.90;;;;;;;;;;5033472;28;20084;-94
2022/12/13 04:28:34;;;;;;;17.48;7.55;;;;;;;;;;5033270;28;20064;-95
2022/12/13 04:31:02;;;;;;;13.02;7.10;;;;;;;;;;5033720;28;20053;-94
2022/12/13 04:33:31;;;;;;;12.15;6.85;;;;;;;;;;5033673;28;20049;-93
2022/12/13 04:35:58;;;;;;;18.08;6.28;;;;;;;;;;5033954;28;20057;-93
2022/12/13 04:38:26;;;;;;;16.30;6.47;;;;;;;;;;5033953;28;20046;-94
2022/12/13 04:40:53;;;;;;;14.75;6.68;;;;;;;;;;5033127;28;20441;-94
2022/12/13 04:43:20;;;;;;;13.88;7.03;;;;;;;;;;5033512;28;20525;-94
2022/12/13 04:45:48;;;;;;;12.13;5.65;;;;;;;;;;5033064;28;20055;-93
2022/12/13 04:48:15;;;;;;;22.15;7.57;;;;;;;;;;5033309;28;20083;-93
2022/12/13 04:50:58;;;;;;;12.13;6.85;;;;;;;;;;5033749;28;20132;-94
2022/12/13 04:53:28;;;;;;;12.05;6.10;;;;;;;;;;5033165;28;20061;-93
2022/12/13 04:55:55;;;;;;;11.07;5.72;;;;;;;;;;5033162;28;20497;-93
2022/12/13 04:58:22;;;;;;;14.88;6.63;;;;;;;;;;5033378;28;20051;-93
2022/12/13 05:00:49;;;;;;;16.75;6.47;;;;;;;;;;5033389;28;20056;-93
2022/12/13 05:03:17;;;;;;;18.08;6.60;;;;;;;;;;5033417;28;20053;-94
2022/12/13 05:05:44;;;;;;;15.15;6.43;;;;;;;;;;5033282;28;20049;-93
2022/12/13 05:08:12;;;;;;;12.70;6.20;;;;;;;;;;5033125;28;20444;-93
2022/12/13 05:10:39;;;;;;;15.48;6.65;;;;;;;;;;5032782;28;20072;-94
2022/12/13 05:13:06;;;;;;;12.77;5.72;;;;;;;;;;5033056;28;20060;-93
2022/12/13 05:15:34;;;;;;;16.30;6.18;;;;;;;;;;5032901;28;20052;-93
2022/12/13 05:18:02;;;;;;;16.00;6.68;;;;;;;;;;5033190;28;20057;-94
2022/12/13 05:20:37;;;;;;;9.50;5.93;;;;;;;;;;5032767;28;20053;-93
2022/12/13 05:23:04;;;;;;;25.30;9.32;;;;;;;;;;5032880;28;20057;-93
2022/12/13 05:25:33;;;;;;;29.15;11.55;;;;;;;;;;5032852;28;20049;-94
2022/12/13 05:28:00;;;;;;;36.75;10.98;;;;;;;;;;5032878;28;20071;-93
2022/12/13 05:30:47;;;;;;;20.60;9.80;;;;;;;;;;5032788;28;20056;-93
2022/12/13 05:33:14;;;;;;;18.95;7.22;;;;;;;;;;5032708;28;20068;-93
2022/12/13 05:35:41;;;;;;;16.40;8.27;;;;;;;;;;5032679;28;20049;-93
2022/12/13 05:38:09;;;;;;;21.92;8.57;;;;;;;;;;5032925;28;20056;-93
2022/12/13 05:40:36;;;;;;;19.00;7.60;;;;;;;;;;5032908;28;20068;-94
2022/12/13 05:43:03;;;;;;;14.25;5.60;;;;;;;;;;5032888;28;20050;-95
2022/12/13 05:45:48;;;;;;;13.65;5.85;;;;;;;;;;5032966;28;20493;-93
2022/12/13 05:48:15;;;;;;;12.15;6.13;;;;;;;;;;5032733;28;20068;-94
2022/12/13 05:50:50;;;;;;;13.23;6.05;;;;;;;;;;5033582;28;20049;-93
2022/12/13 05:53:36;;;;;;;16.27;7.45;;;;;;;;;;5035209;28;20069;-92
2022/12/13 05:56:03;;;;;;;11.70;6.80;;;;;;;;;;5037013;28;20069;-94
2022/12/13 05:58:31;;;;;;;10.80;6.75;;;;;;;;;;5036779;28;20141;-92
2022/12/13 06:01:10;;;;;;;8.97;4.57;;;;;;;;;;5046245;28;20061;-92
2022/12/13 06:03:37;;;;;;;18.67;6.65;;;;;;;;;;5044533;28;20053;-93
2022/12/13 06:06:05;;;;;;;19.73;6.78;;;;;;;;;;5036314;28;20061;-93
2022/12/13 06:08:33;;;;;;;10.02;5.90;;;;;;;;;;5035989;28;20049;-94
2022/12/13 06:11:01;;;;;;;15.32;6.18;;;;;;;;;;5036924;28;20045;-93
2022/12/13 06:13:38;;;;;;;13.70;5.35;;;;;;;;;;5036389;28;20473;-93
2022/12/13 06:16:10;;;;;;;14.43;4.73;;;;;;;;;;5036091;28;20548;-92
2022/12/13 06:18:50;;;;;;;8.80;4.68;;;;;;;;;;5036628;28;20057;-92
2022/12/13 06:21:27;;;;;;;15.05;5.57;;;;;;;;;;5036247;28;20050;-93
2022/12/13 06:23:57;;;;;;;10.40;5.85;;;;;;;;;;5036011;28;20132;-93
2022/12/13 06:26:24;;;;;;;10.93;5.53;;;;;;;;;;5036162;28;20076;-93
2022/12/13 06:28:51;;;;;;;8.68;5.22;;;;;;;;;;5035903;28;20053;-94
2022/12/13 06:31:19;;;;;;;9.23;5.38;;;;;;;;;;5035929;28;20068;-93
2022/12/13 06:33:46;;;;;;;12.45;5.65;;;;;;;;;;5036131;28;20088;-92
2022/12/13 06:36:13;;;;;;;11.80;4.97;;;;;;;;;;5035730;28;20053;-93
2022/12/13 06:38:40;;;;;;;11.50;5.10;;;;;;;;;;5036197;28;20046;-92
2022/12/13 06:41:11;;;;;;;7.75;5.13;;;;;;;;;;5035864;28;20589;-92
2022/12/13 06:43:44;;;;;;;14.00;6.10;;;;;;;;;;5035994;28;20049;-92
2022/12/13 06:46:12;;;;;;;15.88;6.93;;;;;;;;;;5035574;28;20053;-93
2022/12/13 06:48:39;;;;;;;19.08;7.93;;;;;;;;;;5035498;28;20053;-93
2022/12/13 06:51:07;;;;;;;23.77;8.52;;;;;;;;;;5035775;28;20046;-93
2022/12/13 06:53:36;;;;;;;28.73;11.93;;;;;;;;;;5035381;28;20053;-93
2022/12/13 06:56:07;;;;;;;37.67;13.82;;;;;;;;;;5035764;28;20512;-93
2022/12/13 06:58:35;;;;;;;26.42;11.77;;;;;;;;;;5036638;28;20055;-93
2022/12/13 07:01:10;;;;;;;40.67;13.88;;;;;;;;;;5038215;28;20050;-92
2022/12/13 07:03:50;;;;;;;28.67;10.80;;;;;;;;;;5038440;28;20053;-91
2022/12/13 07:06:21;;;;;;;27.25;9.80;;;;;;;;;;5037657;28;20132;-92
2022/12/13 07:08:50;;;;;;;16.02;7.57;;;;;;;;;;5036303;28;20049;-92
2022/12/13 07:11:18;;;;;;;29.77;9.27;;;;;;;;;;5035757;28;20489;-93
2022/12/13 07:13:45;;;;;;;22.05;9.57;;;;;;;;;;5036016;28;20049;-92
2022/12/13 07:16:12;;;;;;;14.38;7.20;;;;;;;;;;5035440;28;20048;-92
2022/12/13 07:18:40;;;;;;;12.57;6.65;;;;;;;;;;5035241;28;20629;-93
2022/12/13 07:21:09;;;;;;;14.25;6.68;;;;;;;;;;5034956;28;20506;-93
2022/12/13 07:23:51;;;;;;;20.95;6.88;;;;;;;;;;5034870;28;20405;-92
2022/12/13 07:26:21;;;;;;;13.20;6.35;;;;;;;;;;5035159;28;20074;-93
2022/12/13 07:28:49;;;;;;;14.55;7.13;;;;;;;;;;5035037;28;20136;-93
2022/12/13 07:31:22;;;;;;;17.38;7.63;;;;;;;;;;5034969;28;20132;-93
2022/12/13 07:33:50;;;;;;;27.45;9.43;;;;;;;;;;5035034;28;20073;-92
2022/12/13 07:36:19;;;;;;;24.88;10.07;;;;;;;;;;5034702;28;20057;-92
2022/12/13 07:38:56;;;;;;;30.20;8.88;;;;;;;;;;5034779;28;20068;-92
2022/12/13 07:41:24;;;;;;;20.80;9.27;;;;;;;;;;5034346;28;20116;-92
2022/12/13 07:43:52;;;;;;;18.42;8.35;;;;;;;;;;5034812;28;20069;-92
2022/12/13 07:46:22;;;;;;;15.38;7.35;;;;;;;;;;5034416;28;20081;-92
2022/12/13 07:49:03;;;;;;;16.48;7.63;;;;;;;;;;5034352;28;20049;-92
2022/12/13 07:51:33;;;;;;;11.67;6.17;;;;;;;;;;5034590;28;20048;-91
2022/12/13 07:54:00;;;;;;;24.63;8.50;;;;;;;;;;5034448;28;20402;-92
2022/12/13 07:56:33;;;;;;;18.20;8.07;;;;;;;;;;5034563;28;20087;-92
2022/12/13 07:59:00;;;;;;;15.93;7.40;;;;;;;;;;5034251;28;20064;-92
2022/12/13 08:01:28;;;;;;;28.00;10.23;;;;;;;;;;5034512;28;20067;-92
2022/12/13 08:03:55;;;;;;;31.95;9.57;;;;;;;;;;5034400;28;20049;-93
2022/12/13 08:06:22;;;;;;;24.30;10.32;;;;;;;;;;5034475;28;20080;-92
2022/12/13 08:08:50;;;;;;;28.25;12.85;;;;;;;;;;5034120;28;20049;-92
2022/12/13 08:11:17;;;;;;;20.48;11.48;;;;;;;;;;5034710;28;20084;-92
2022/12/13 08:13:44;;;;;;;25.35;11.57;;;;;;;;;;5035257;28;20062;-92
2022/12/13 08:16:16;;;;;;;24.50;10.77;;;;;;;;;;5035576;28;20052;-92
2022/12/13 08:18:55;;;;;;;22.63;10.35;;;;;;;;;;5052394;28;20038;-92
2022/12/13 08:21:40;;;;;;;26.08;10.48;;;;;;;;;;5037419;28;20399;-92
2022/12/13 08:24:25;;;;;;;26.75;12.13;;;;;;;;;;5034254;28;20061;-92
2022/12/13 08:26:53;;;;;;;25.65;10.63;;;;;;;;;;5033979;28;20053;-92
2022/12/13 08:29:20;;;;;;;16.60;9.65;;;;;;;;;;5033794;28;20052;-92
2022/12/13 08:32:05;;;;;;;18.02;9.85;;;;;;;;;;5033446;28;20072;-92
2022/12/13 08:34:32;;;;;;;24.40;10.60;;;;;;;;;;5033330;28;20482;-92
2022/12/13 08:37:00;;;;;;;22.70;9.00;;;;;;;;;;5033957;28;20048;-92
2022/12/13 08:39:31;;;;;;;17.88;7.68;;;;;;;;;;5033544;28;20049;-92
2022/12/13 08:42:01;;;;;;;12.95;8.52;;;;;;;;;;5033965;28;20049;-92
2022/12/13 08:44:43;;;;;;;17.67;8.80;;;;;;;;;;5033438;28;20060;-91
2022/12/13 08:47:10;;;;;;;22.38;10.35;;;;;;;;;;5033475;28;20053;-92
2022/12/13 08:49:37;;;;;;;23.50;10.98;;;;;;;;;;5033597;28;20091;-92
2022/12/13 08:52:05;;;;;;;20.80;10.27;;;;;;;;;;5033832;28;20057;-91
2022/12/13 08:54:35;;;;;;;25.85;11.30;;;;;;;;;;5033896;28;20053;-92
2022/12/13 08:57:03;;;;;;;27.88;12.75;;;;;;;;;;5036000;28;20053;-92
2022/12/13 08:59:30;;;;;;;30.98;14.05;;;;;;;;;;5039355;28;20557;-92
2022/12/13 09:01:58;;;;;;;27.75;12.52;;;;;;;;;;5032584;28;20080;-92
2022/12/13 09:04:31;;;;;;;25.35;11.57;;;;;;;;;;5033877;28;20073;-92
2022/12/13 09:06:58;;;;;;;34.95;13.10;;;;;;;;;;5034099;28;20107;-91
2022/12/13 09:09:28;;;;;;;30.73;12.98;;;;;;;;;;5032863;28;20077;-92
2022/12/13 09:11:56;;;;;;;32.35;13.13;;;;;;;;;;5033128;28;20045;-92
2022/12/13 09:14:26;;;;;;;28.35;13.68;;;;;;;;;;5033040;28;20498;-92
2022/12/13 09:17:01;;;;;;;32.80;13.43;;;;;;;;;;5033540;28;20490;-93
2022/12/13 09:19:29;;;;;;;31.55;13.82;;;;;;;;;;5033587;28;20419;-93
2022/12/13 09:22:04;;;;;;;24.80;12.95;;;;;;;;;;5033155;28;20382;-93
2022/12/13 09:24:31;;;;;;;39.72;12.32;;;;;;;;;;5032592;28;20065;-92
2022/12/13 09:27:03;;;;;;;26.10;10.43;;;;;;;;;;5032825;28;20053;-93
2022/12/13 09:29:37;;;;;;;39.13;13.10;;;;;;;;;;5032450;28;20076;-92
2022/12/13 09:32:04;;;;;;;35.33;11.68;;;;;;;;;;5033313;28;20055;-92
2022/12/13 09:34:31;;;;;;;39.00;12.27;;;;;;;;;;5033286;28;20139;-93
2022/12/13 09:36:59;;;;;;;27.50;12.07;;;;;;;;;;5032951;28;20053;-92
2022/12/13 09:39:28;;;;;;;34.40;11.55;;;;;;;;;;5032136;28;20081;-93
2022/12/13 09:41:59;;;;;;;39.30;13.25;;;;;;;;;;5031307;28;20056;-93
2022/12/13 09:44:27;;;;;;;;;;;;;;;;;;5032774;28;20254;-92
2022/12/13 09:47:00;;;;;;;43.42;13.38;;;;;;;;;;5048823;28;19971;-92
2022/12/13 09:49:35;;;;;;;33.25;14.00;;;;;;;;;;5032740;28;20053;-92
2022/12/13 09:52:04;;;;;;;43.13;16.73;;;;;;;;;;5032545;28;20177;-93
2022/12/13 09:54:38;;;;;;;42.45;16.17;;;;;;;;;;5032775;28;20077;-92
2022/12/13 09:57:19;;;;;;;29.67;14.90;;;;;;;;;;5032593;28;20049;-93
2022/12/13 10:00:00;;;;;;;38.95;15.88;;;;;;;;;;5032630;28;20049;-93
2022/12/13 10:02:29;;;;;;;33.50;15.60;;;;;;;;;;5032525;28;20058;-93
2022/12/13 10:05:13;;;;;;;43.90;15.55;;;;;;;;;;5032499;28;20053;-93
2022/12/13 10:07:51;;;;;;;44.35;15.63;;;;;;;;;;5032459;28;20046;-92
2022/12/13 10:10:19;;;;;;;32.92;14.27;;;;;;;;;;5032194;28;20057;-93
2022/12/13 10:12:51;;;;;;;52.22;14.68;;;;;;;;;;5032519;28;20486;-92
2022/12/13 10:15:19;;;;;;;37.58;12.82;;;;;;;;;;5032734;28;20481;-92
2022/12/13 10:17:49;;;;;;;46.40;13.98;;;;;;;;;;5032614;28;20053;-93
2022/12/13 10:20:24;;;;;;;40.38;14.27;;;;;;;;;;5032440;28;20132;-92
2022/12/13 10:22:52;;;;;;;45.25;12.90;;;;;;;;;;5032644;28;20073;-92
2022/12/13 10:25:47;;;;;;;43.05;12.60;;;;;;;;;;5032241;28;20449;-92
2022/12/13 10:28:19;;;;;;;38.35;12.35;;;;;;;;;;5032501;28;20232;-93
2022/12/13 10:30:46;;;;;;;37.50;12.73;;;;;;;;;;5034184;28;20049;-93
2022/12/13 10:33:30;;;;;;;37.88;11.35;;;;;;;;;;5035627;28;20161;-93
2022/12/13 10:36:01;;;;;;;32.28;11.50;;;;;;;;;;5047367;28;20592;-93
2022/12/13 10:38:30;;;;;;;28.23;9.32;;;;;;;;;;5039903;28;20058;-92
2022/12/13 10:40:58;;;;;;;35.60;12.02;;;;;;;;;;5035721;28;20144;-93
2022/12/13 10:43:29;;;;;;;44.33;11.88;;;;;;;;;;5035534;28;20053;-94
2022/12/13 10:45:56;;;;;;;48.88;12.50;;;;;;;;;;5035964;28;20057;-92
2022/12/13 10:48:46;;;;;;;57.78;13.15;;;;;;;;;;5035643;28;20077;-93
2022/12/13 10:51:14;;;;;;;57.58;13.57;;;;;;;;;;5036055;28;20064;-93
2022/12/13 10:53:50;;;;;;;45.38;14.18;;;;;;;;;;5035623;28;20061;-93
2022/12/13 10:56:18;;;;;;;48.10;14.50;;;;;;;;;;5035381;28;20060;-93
2022/12/13 10:58:51;;;;;;;52.60;14.73;;;;;;;;;;5035725;28;20046;-93
2022/12/13 11:01:19;;;;;;;57.15;13.25;;;;;;;;;;5035699;28;20060;-93
2022/12/13 11:04:02;;;;;;;42.20;11.25;;;;;;;;;;5035727;28;20053;-93
2022/12/13 11:06:43;;;;;;;30.10;9.02;;;;;;;;;;5036015;28;20324;-93
2022/12/13 11:09:34;;;;;;;51.88;10.63;;;;;;;;;;5035334;28;20052;-93
2022/12/13 11:12:12;;;;;;;25.23;9.05;;;;;;;;;;5045912;28;20116;-93
2022/12/13 11:14:47;;;;;;;27.60;8.93;;;;;;;;;;5035111;28;20067;-93
2022/12/13 11:17:16;;;;;;;40.13;11.75;;;;;;;;;;5035309;28;20049;-93
2022/12/13 11:19:48;;;;;;;38.65;13.32;;;;;;;;;;5035288;28;20049;-92
2022/12/13 11:22:20;;;;;;;40.05;13.60;;;;;;;;;;5035766;28;20053;-93
2022/12/13 11:24:53;;;;;;;24.42;8.50;;;;;;;;;;5034949;28;20140;-94
2022/12/13 11:27:20;;;;;;;29.10;10.15;;;;;;;;;;5034972;28;20053;-94
2022/12/13 11:30:02;;;;;;;25.83;9.73;;;;;;;;;;5034919;28;20562;-93
2022/12/13 11:32:32;;;;;;;22.85;8.35;;;;;;;;;;5035230;28;20056;-93
2022/12/13 11:35:10;;;;;;;39.67;11.82;;;;;;;;;;5034990;28;20521;-93
2022/12/13 11:37:56;;;;;;;48.28;15.95;;;;;;;;;;5034531;28;20077;-90
2022/12/13 11:40:29;;;;;;;55.20;17.42;;;;;;;;;;5034689;28;20060;-91
2022/12/13 11:43:08;;;;;;;58.33;20.13;;;;;;;;;;5035229;28;20061;-91
2022/12/13 11:45:41;;;;;;;64.28;21.50;;;;;;;;;;5034282;28;20057;-91
2022/12/13 11:48:08;;;;;;;49.30;16.33;;;;;;;;;;5034660;28;20053;-93
2022/12/13 11:50:40;;;;;;;55.50;13.70;;;;;;;;;;5033373;28;20524;-92
2022/12/13 11:53:10;;;;;;;70.55;15.82;;;;;;;;;;5034716;28;20055;-91
2022/12/13 11:55:40;;;;;;;63.88;13.90;;;;;;;;;;5034719;28;20049;-91
2022/12/13 11:58:22;;;;;;;49.65;12.65;;;;;;;;;;5033955;28;20131;-92
2022/12/13 12:01:12;;;;;;;45.78;9.95;;;;;;;;;;5034300;28;20053;-92
2022/12/13 12:03:41;;;;;;;47.72;10.57;;;;;;;;;;5034303;28;20087;-93
2022/12/13 12:06:16;;;;;;;46.95;9.88;;;;;;;;;;5033324;28;20149;-92
2022/12/13 12:08:50;;;;;;;38.88;9.63;;;;;;;;;;5034350;28;20059;-93
2022/12/13 12:11:33;;;;;;;22.58;6.85;;;;;;;;;;5034370;28;20490;-93
2022/12/13 12:14:20;;;;;;;15.97;5.97;;;;;;;;;;5035005;28;20049;-93
2022/12/13 12:16:54;;;;;;;22.13;6.85;;;;;;;;;;5014129;28;20046;-95
2022/12/13 12:19:27;;;;;;;15.73;6.00;;;;;;;;;;5034230;28;20052;-95
2022/12/13 12:21:59;;;;;;;25.88;6.82;;;;;;;;;;5034122;28;20049;-96
2022/12/13 12:24:57;;;;;;;19.58;6.95;;;;;;;;;;5034037;28;20141;-96
2022/12/13 12:27:24;;;;;;;20.48;6.32;;;;;;;;;;5034377;28;20059;-95
2022/12/13 12:30:04;;;;;;;17.73;6.82;;;;;;;;;;5033881;28;20489;-96
2022/12/13 12:32:43;;;;;;;21.73;6.95;;;;;;;;;;5034426;28;20053;-96
2022/12/13 12:35:29;;;;;;;24.08;6.63;;;;;;;;;;5034384;28;20140;-96
2022/12/13 12:38:10;;;;;;;22.55;6.68;;;;;;;;;;5033981;28;20056;-95
2022/12/13 12:40:52;;;;;;;26.65;7.80;;;;;;;;;;5034577;28;20053;-96
2022/12/13 12:43:41;;;;;;;29.20;8.57;;;;;;;;;;5035254;28;20053;-96
2022/12/13 12:46:13;;;;;;;35.42;9.40;;;;;;;;;;5034607;28;20049;-96
2022/12/13 12:49:04;;;;;;;33.13;9.15;;;;;;;;;;5035156;28;20524;-95
2022/12/13 12:51:38;;;;;;;34.95;9.57;;;;;;;;;;5037191;28;20057;-96
2022/12/13 12:54:32;;;;;;;36.03;8.73;;;;;;;;;;5046666;28;20049;-96
2022/12/13 12:57:03;;;;;;;22.38;8.00;;;;;;;;;;5030925;28;20060;-96
2022/12/13 12:59:37;;;;;;;20.65;6.50;;;;;;;;;;5037650;28;20052;-96
2022/12/13 13:02:16;;;;;;;18.38;6.68;;;;;;;;;;5036910;28;20072;-96
2022/12/13 13:04:48;;;;;;;14.27;5.85;;;;;;;;;;5038143;28;20052;-96
2022/12/13 13:07:35;;;;;;;15.25;6.22;;;;;;;;;;5036405;28;20145;-96
2022/12/13 13:10:07;;;;;;;16.60;6.80;;;;;;;;;;5036532;28;20128;-95
2022/12/13 13:12:53;;;;;;;16.23;6.90;;;;;;;;;;5037288;28;20085;-96
2022/12/13 13:15:38;;;;;;;16.13;6.60;;;;;;;;;;5038904;28;20053;-96
2022/12/13 13:18:26;;;;;;;20.58;6.47;;;;;;;;;;5037225;28;20053;-96
2022/12/13 13:21:12;;;;;;;13.55;6.07;;;;;;;;;;5038232;28;20477;-96
2022/12/13 13:23:40;;;;;;;15.15;6.95;;;;;;;;;;5037647;28;20057;-96
2022/12/13 13:26:07;;;;;;;16.35;6.78;;;;;;;;;;5038327;28;20053;-96
2022/12/13 13:29:15;;;;;;;24.00;6.65;;;;;;;;;;5039469;28;20379;-96
2022/12/13 13:32:02;;;;;;;25.65;7.53;;;;;;;;;;5039890;28;20074;-96
2022/12/13 13:34:36;;;;;;;24.38;7.72;;;;;;;;;;5039578;28;20072;-96
2022/12/13 13:37:04;;;;;;;29.50;8.40;;;;;;;;;;5041677;28;20045;-96
2022/12/13 13:39:32;;;;;;;51.13;9.60;;;;;;;;;;5040575;28;20113;-95
2022/12/13 13:42:09;;;;;;;44.03;8.73;;;;;;;;;;5041618;28;20117;-96
2022/12/13 13:44:51;;;;;;;39.53;8.07;;;;;;;;;;5040134;28;20072;-91
2022/12/13 13:47:19;;;;;;;35.67;8.52;;;;;;;;;;5040580;28;20049;-96
2022/12/13 13:50:05;;;;;;;28.70;6.68;;;;;;;;;;5041218;28;20057;-96
2022/12/13 13:52:51;;;;;;;16.92;5.97;;;;;;;;;;5041632;28;20045;-96
2022/12/13 13:55:43;;;;;;;10.80;5.82;;;;;;;;;;5040359;28;20068;-96
2022/12/13 13:58:30;;;;;;;11.90;6.40;;;;;;;;;;5043444;28;20057;-96
2022/12/13 14:01:16;;;;;;;9.73;5.90;;;;;;;;;;5041880;28;20064;-96
2022/12/13 14:04:04;;;;;;;12.50;7.07;;;;;;;;;;5042348;28;20053;-96
2022/12/13 14:06:50;;;;;;;17.73;7.90;;;;;;;;;;5043976;28;20083;-96
2022/12/13 14:09:36;;;;;;;12.30;7.07;;;;;;;;;;5042404;28;20061;-96
2022/12/13 14:12:07;;;;;;;16.73;7.80;;;;;;;;;;5042826;28;20057;-95
2022/12/13 14:14:38;;;;;;;14.68;7.50;;;;;;;;;;5040715;28;20042;-96
2022/12/13 14:17:24;;;;;;;13.82;7.88;;;;;;;;;;5054638;28;20037;-96
2022/12/13 14:20:12;;;;;;;13.30;7.13;;;;;;;;;;5044043;28;20053;-94
2022/12/13 14:22:50;;;;;;;24.08;7.22;;;;;;;;;;5046206;28;20060;-95
2022/12/13 14:25:33;;;;;;;34.10;7.95;;;;;;;;;;5044877;28;20050;-95
2022/12/13 14:28:13;;;;;;;23.02;8.05;;;;;;;;;;5049320;28;20127;-94
2022/12/13 14:30:44;;;;;;;16.70;7.80;;;;;;;;;;5046602;28;20083;-96
2022/12/13 14:33:24;;;;;;;19.00;8.27;;;;;;;;;;5043497;28;20052;-96
2022/12/13 14:35:54;;;;;;;16.67;8.43;;;;;;;;;;5023525;28;20053;-94
2022/12/13 14:38:23;;;;;;;17.55;8.13;;;;;;;;;;5041944;28;20084;-95
2022/12/13 14:41:07;;;;;;;14.55;8.98;;;;;;;;;;5038902;28;20061;-96
2022/12/13 14:43:36;;;;;;;17.40;8.13;;;;;;;;;;5045787;28;20061;-95
2022/12/13 14:46:06;;;;;;;39.03;11.65;;;;;;;;;;5047277;28;20129;-94
2022/12/13 14:48:36;;;;;;;32.92;10.43;;;;;;;;;;5042600;28;20140;-95
2022/12/13 14:51:04;;;;;;;27.75;11.07;;;;;;;;;;5042899;28;20116;-96
2022/12/13 14:53:40;;;;;;;27.67;11.27;;;;;;;;;;5048822;28;20056;-96
2022/12/13 14:56:09;;;;;;;44.10;18.55;;;;;;;;;;5047598;28;20060;-96
2022/12/13 14:58:55;;;;;;;39.10;17.30;;;;;;;;;;5045912;28;20050;-96
2022/12/13 15:01:32;;;;;;;41.70;17.65;;;;;;;;;;5044657;28;20072;-96
2022/12/13 15:04:21;;;;;;;39.40;16.50;;;;;;;;;;5042765;28;20087;-96